createdAt,value
2019-03-09T00:00:55.605Z,53.70
2019-03-09T00:03:24.146Z,53.90
2019-03-09T00:05:52.623Z,54.30
2019-03-09T00:08:21.051Z,54.50
2019-03-09T00:10:49.811Z,54.70
2019-03-09T00:13:18.247Z,54.70
2019-03-09T00:15:46.589Z,54.70
2019-03-09T00:18:15.052Z,54.80
2019-03-09T00:20:43.592Z,54.90
2019-03-09T00:23:13.626Z,54.90
2019-03-09T00:25:43.651Z,55.00
2019-03-09T00:28:20.035Z,55.00
2019-03-09T00:30:50.016Z,55.00
2019-03-09T00:33:18.474Z,55.00
2019-03-09T00:35:47.246Z,54.70
2019-03-09T00:38:15.598Z,54.60
2019-03-09T00:40:44.040Z,54.80
2019-03-09T00:43:12.627Z,54.90
2019-03-09T00:45:41.061Z,55.00
2019-03-09T00:48:09.550Z,55.10
2019-03-09T00:50:39.024Z,55.10
2019-03-09T00:53:07.435Z,55.40
2019-03-09T00:55:35.857Z,54.80
2019-03-09T00:58:04.372Z,54.80
2019-03-09T01:00:32.810Z,55.00
2019-03-09T01:03:01.315Z,55.20
2019-03-09T01:05:29.884Z,55.20
2019-03-09T01:07:58.301Z,55.10
2019-03-09T01:10:26.892Z,55.60
2019-03-09T01:12:56.416Z,55.10
2019-03-09T01:15:24.777Z,54.90
2019-03-09T01:17:53.192Z,54.70
2019-03-09T01:20:21.714Z,54.60
2019-03-09T01:22:50.285Z,54.80
2019-03-09T01:25:18.768Z,54.90
2019-03-09T01:27:47.209Z,55.00
2019-03-09T01:30:17.396Z,55.10
2019-03-09T01:32:45.893Z,55.10
2019-03-09T01:35:14.354Z,55.10
2019-03-09T01:37:42.821Z,55.10
2019-03-09T01:40:15.511Z,55.50
2019-03-09T01:42:44.036Z,55.90
2019-03-09T01:45:15.113Z,55.70
2019-03-09T01:47:43.552Z,55.60
2019-03-09T01:50:11.965Z,55.50
2019-03-09T01:52:40.416Z,55.50
2019-03-09T01:55:13.078Z,55.70
2019-03-09T01:57:41.608Z,56.10
2019-03-09T02:00:12.858Z,56.50
2019-03-09T02:02:41.190Z,56.50
2019-03-09T02:05:09.728Z,56.40
2019-03-09T02:07:38.211Z,56.20
2019-03-09T02:10:14.444Z,56.30
2019-03-09T02:12:42.902Z,56.40
2019-03-09T02:15:17.417Z,56.40
2019-03-09T02:17:45.790Z,56.40
2019-03-09T02:20:15.252Z,56.30
2019-03-09T02:22:43.786Z,56.20
2019-03-09T02:25:12.882Z,56.30
2019-03-09T02:27:41.404Z,56.20
2019-03-09T02:30:17.926Z,56.30
2019-03-09T02:32:46.343Z,56.50
2019-03-09T02:35:15.813Z,56.50
2019-03-09T02:37:44.313Z,56.80
2019-03-09T02:40:14.659Z,57.00
2019-03-09T02:42:43.075Z,57.00
2019-03-09T02:45:17.161Z,57.10
2019-03-09T02:47:45.556Z,57.30
2019-03-09T02:50:16.029Z,57.50
2019-03-09T02:52:44.711Z,57.50
2019-03-09T02:55:13.739Z,57.40
2019-03-09T02:57:42.206Z,57.50
2019-03-09T03:00:13.892Z,57.40
2019-03-09T03:02:46.756Z,57.40
2019-03-09T03:05:15.564Z,57.30
2019-03-09T03:07:44.008Z,57.30
2019-03-09T03:10:14.076Z,57.50
2019-03-09T03:12:42.510Z,57.70
2019-03-09T03:15:12.957Z,57.80
2019-03-09T03:17:41.461Z,58.00
2019-03-09T03:20:09.894Z,58.10
2019-03-09T03:22:38.265Z,58.20
2019-03-09T03:25:06.832Z,58.40
2019-03-09T03:27:54.721Z,58.50
2019-03-09T03:30:23.243Z,58.50
2019-03-09T03:32:53.300Z,58.60
2019-03-09T03:35:21.741Z,58.60
2019-03-09T03:37:50.293Z,58.80
2019-03-09T03:40:18.725Z,58.80
2019-03-09T03:42:47.147Z,58.90
2019-03-09T03:45:15.604Z,59.00
2019-03-09T03:47:44.021Z,59.10
2019-03-09T03:50:12.382Z,59.50
2019-03-09T03:52:40.949Z,59.30
2019-03-09T03:55:11.035Z,60.00
2019-03-09T03:57:39.447Z,60.10
2019-03-09T04:00:13.940Z,60.10
2019-03-09T04:02:42.407Z,60.30
2019-03-09T04:05:10.789Z,60.30
2019-03-09T04:07:40.338Z,60.10
2019-03-09T04:10:11.170Z,61.10
2019-03-09T04:12:39.612Z,60.50
2019-03-09T04:15:08.338Z,60.50
2019-03-09T04:17:36.662Z,60.40
2019-03-09T04:20:07.362Z,60.30
2019-03-09T04:22:35.787Z,60.30
2019-03-09T04:25:05.386Z,60.10
2019-03-09T04:27:33.935Z,60.30
2019-03-09T04:30:02.519Z,60.20
2019-03-09T04:32:30.963Z,59.80
2019-03-09T04:34:59.440Z,59.60
2019-03-09T04:37:27.974Z,59.70
2019-03-09T04:39:56.429Z,60.00
2019-03-09T04:42:24.849Z,60.10
2019-03-09T04:44:53.338Z,60.20
2019-03-09T04:47:21.821Z,60.40
2019-03-09T04:49:50.372Z,61.70
2019-03-09T04:52:18.770Z,61.10
2019-03-09T04:54:47.212Z,61.20
2019-03-09T04:57:15.568Z,61.30
2019-03-09T04:59:44.141Z,61.20
2019-03-09T05:02:12.493Z,61.00
2019-03-09T05:04:42.988Z,61.10
2019-03-09T05:07:13.466Z,61.50
2019-03-09T05:10:03.101Z,61.70
2019-03-09T05:12:32.274Z,61.90
2019-03-09T05:15:00.753Z,61.80
2019-03-09T05:17:29.116Z,61.70
2019-03-09T05:19:57.677Z,61.70
2019-03-09T05:22:26.078Z,61.70
2019-03-09T05:24:54.503Z,61.70
2019-03-09T05:27:22.980Z,61.80
2019-03-09T05:29:51.413Z,61.90
2019-03-09T05:32:19.915Z,61.90
2019-03-09T05:34:48.387Z,61.90
2019-03-09T05:37:16.810Z,61.80
2019-03-09T05:39:45.260Z,61.90
2019-03-09T05:42:13.613Z,62.00
2019-03-09T05:44:41.902Z,61.90
2019-03-09T05:47:10.372Z,61.50
2019-03-09T05:49:38.716Z,61.40
2019-03-09T05:52:19.320Z,61.70
2019-03-09T05:54:47.678Z,62.00
2019-03-09T05:57:16.132Z,62.20
2019-03-09T05:59:44.549Z,62.30
2019-03-09T06:02:12.943Z,62.30
2019-03-09T06:04:41.369Z,62.70
2019-03-09T06:07:09.829Z,63.00
2019-03-09T06:09:38.268Z,63.20
2019-03-09T06:12:06.750Z,63.20
2019-03-09T06:14:35.202Z,63.30
2019-03-09T06:17:03.621Z,63.50
2019-03-09T06:19:32.044Z,63.90
2019-03-09T06:22:00.340Z,64.20
2019-03-09T06:24:28.678Z,64.10
2019-03-09T06:26:57.170Z,64.10
2019-03-09T06:29:25.626Z,64.00
2019-03-09T06:32:16.981Z,64.10
2019-03-09T06:34:45.340Z,64.00
2019-03-09T06:37:13.834Z,64.00
2019-03-09T06:39:42.303Z,64.00
2019-03-09T06:42:14.000Z,63.60
2019-03-09T06:44:42.426Z,63.40
2019-03-09T06:47:10.871Z,63.40
2019-03-09T06:49:39.332Z,63.30
2019-03-09T06:52:07.752Z,63.40
2019-03-09T06:54:36.111Z,63.90
2019-03-09T06:57:13.255Z,64.00
2019-03-09T06:59:34.552Z,64.00
2019-03-09T07:02:02.922Z,63.60
2019-03-09T07:04:31.209Z,63.20
2019-03-09T07:06:59.598Z,63.40
2019-03-09T07:09:28.060Z,63.60
2019-03-09T07:11:56.431Z,63.80
2019-03-09T07:14:54.143Z,63.80
2019-03-09T07:17:22.596Z,63.80
2019-03-09T07:19:59.889Z,63.70
2019-03-09T07:22:28.235Z,63.50
2019-03-09T07:24:56.651Z,63.00
2019-03-09T07:27:25.153Z,63.20
2019-03-09T07:29:53.601Z,63.40
2019-03-09T07:32:22.082Z,63.70
2019-03-09T07:34:51.651Z,63.60
2019-03-09T07:37:20.170Z,64.00
2019-03-09T07:39:48.666Z,64.80
2019-03-09T07:42:17.129Z,63.80
2019-03-09T07:44:45.497Z,64.10
2019-03-09T07:47:13.981Z,64.70
2019-03-09T07:49:42.348Z,65.50
2019-03-09T07:52:28.434Z,65.70
2019-03-09T07:54:56.803Z,65.50
2019-03-09T07:57:25.245Z,65.50
2019-03-09T07:59:53.719Z,65.20
2019-03-09T08:02:22.138Z,65.00
2019-03-09T08:04:50.574Z,65.30
2019-03-09T08:07:19.072Z,65.40
2019-03-09T08:09:47.467Z,65.40
2019-03-09T08:12:15.891Z,65.00
2019-03-09T08:14:44.353Z,64.40
2019-03-09T08:17:12.795Z,64.10
2019-03-09T08:19:41.255Z,64.20
2019-03-09T08:22:09.738Z,64.20
2019-03-09T08:24:38.171Z,64.10
2019-03-09T08:27:06.711Z,63.90
2019-03-09T08:29:35.235Z,63.80
2019-03-09T08:32:03.691Z,63.60
2019-03-09T08:34:32.190Z,63.40
2019-03-09T08:37:00.719Z,63.10
2019-03-09T08:39:29.168Z,62.80
2019-03-09T08:41:57.719Z,62.40
2019-03-09T08:44:26.253Z,62.00
2019-03-09T08:46:54.729Z,61.90
2019-03-09T08:49:23.181Z,61.50
2019-03-09T08:51:51.685Z,61.20
2019-03-09T08:54:20.087Z,60.90
2019-03-09T08:56:48.492Z,60.60
2019-03-09T08:59:16.980Z,60.10
2019-03-09T09:01:45.453Z,59.80
2019-03-09T09:04:13.884Z,59.50
2019-03-09T09:06:42.338Z,58.90
2019-03-09T09:09:12.383Z,58.40
2019-03-09T09:11:40.896Z,57.70
2019-03-09T09:14:09.392Z,57.30
2019-03-09T09:16:37.891Z,56.80
2019-03-09T09:19:06.233Z,56.60
2019-03-09T09:21:34.666Z,56.20
2019-03-09T09:24:03.021Z,56.40
2019-03-09T09:26:31.478Z,55.70
2019-03-09T09:28:59.977Z,55.40
2019-03-09T09:31:29.469Z,54.90
2019-03-09T09:33:58.595Z,54.70
2019-03-09T09:36:27.086Z,54.40
2019-03-09T09:38:55.609Z,54.20
2019-03-09T09:41:23.961Z,54.10
2019-03-09T09:43:52.420Z,54.10
2019-03-09T09:46:20.851Z,53.60
2019-03-09T09:48:49.582Z,53.30
2019-03-09T09:51:18.099Z,52.80
2019-03-09T09:53:46.617Z,53.10
2019-03-09T09:56:23.817Z,52.50
2019-03-09T09:58:52.230Z,52.00
2019-03-09T10:01:20.768Z,52.10
2019-03-09T10:03:49.188Z,52.20
2019-03-09T10:06:17.598Z,52.10
2019-03-09T10:08:46.129Z,52.00
2019-03-09T10:11:14.597Z,52.50
2019-03-09T10:13:43.031Z,51.80
2019-03-09T10:16:11.495Z,51.50
2019-03-09T10:18:39.947Z,51.30
2019-03-09T10:21:08.391Z,51.40
2019-03-09T10:23:36.821Z,51.50
2019-03-09T10:26:05.355Z,51.50
2019-03-09T10:28:33.871Z,51.60
2019-03-09T10:31:02.188Z,51.70
2019-03-09T10:33:30.586Z,51.40
2019-03-09T10:35:59.095Z,51.40
2019-03-09T10:38:28.155Z,51.50
2019-03-09T10:40:56.584Z,51.50
2019-03-09T10:43:25.036Z,51.40
2019-03-09T10:45:53.520Z,51.30
2019-03-09T10:48:21.827Z,51.00
2019-03-09T10:50:50.358Z,50.90
2019-03-09T10:53:18.871Z,50.80
2019-03-09T10:55:47.217Z,50.70
2019-03-09T10:58:15.684Z,50.60
2019-03-09T11:00:45.296Z,50.60
2019-03-09T11:03:13.667Z,50.60
2019-03-09T11:05:42.138Z,50.50
2019-03-09T11:08:10.614Z,50.40
2019-03-09T11:10:39.106Z,50.20
2019-03-09T11:13:07.460Z,50.10
2019-03-09T11:15:37.683Z,49.80
2019-03-09T11:18:06.072Z,49.50
2019-03-09T11:20:34.539Z,49.40
2019-03-09T11:23:03.136Z,49.40
2019-03-09T11:25:31.669Z,49.40
2019-03-09T11:28:08.633Z,49.10
2019-03-09T11:30:37.128Z,49.10
2019-03-09T11:33:05.517Z,49.00
2019-03-09T11:35:33.999Z,48.80
2019-03-09T11:38:02.545Z,48.50
2019-03-09T11:40:31.000Z,48.10
2019-03-09T11:42:59.451Z,48.10
2019-03-09T11:45:27.944Z,47.80
2019-03-09T11:47:56.341Z,47.60
2019-03-09T11:50:24.766Z,47.70
2019-03-09T11:52:53.302Z,46.40
2019-03-09T11:55:21.660Z,45.60
2019-03-09T11:57:50.181Z,45.20
2019-03-09T12:00:30.792Z,45.30
2019-03-09T12:02:59.228Z,44.90
2019-03-09T12:05:27.705Z,44.30
2019-03-09T12:07:56.216Z,44.20
2019-03-09T12:10:24.658Z,44.50
2019-03-09T12:12:53.072Z,44.60
2019-03-09T12:15:21.612Z,45.30
2019-03-09T12:17:50.781Z,45.00
2019-03-09T12:20:21.020Z,45.50
2019-03-09T12:22:49.406Z,45.50
2019-03-09T12:25:18.381Z,45.70
2019-03-09T12:27:46.917Z,45.90
2019-03-09T12:30:17.696Z,45.60
2019-03-09T12:32:47.184Z,45.00
2019-03-09T12:35:15.620Z,45.00
2019-03-09T12:37:44.053Z,45.00
2019-03-09T12:40:17.299Z,45.10
2019-03-09T12:42:45.684Z,45.10
2019-03-09T12:45:14.377Z,45.10
2019-03-09T12:47:42.936Z,44.70
2019-03-09T12:50:13.987Z,43.90
2019-03-09T12:52:42.523Z,41.40
2019-03-09T12:55:10.948Z,37.20
2019-03-09T12:57:39.393Z,33.80
2019-03-09T13:00:11.132Z,31.70
2019-03-09T13:02:39.585Z,30.60
2019-03-09T13:05:08.068Z,29.70
2019-03-09T13:07:36.589Z,29.20
2019-03-09T13:10:07.046Z,28.60
2019-03-09T13:12:35.615Z,28.40
2019-03-09T13:15:05.245Z,28.20
2019-03-09T13:17:33.775Z,27.90
2019-03-09T13:20:02.327Z,27.90
2019-03-09T13:22:30.781Z,27.90
2019-03-09T13:24:59.231Z,27.50
2019-03-09T13:27:27.645Z,27.30
2019-03-09T13:29:56.061Z,27.50
2019-03-09T13:32:24.441Z,27.10
2019-03-09T13:34:52.864Z,27.10
2019-03-09T13:37:21.299Z,26.30
2019-03-09T13:39:49.794Z,26.00
2019-03-09T13:42:18.299Z,25.90
2019-03-09T13:44:46.741Z,25.40
2019-03-09T13:47:15.160Z,26.20
2019-03-09T13:49:43.558Z,27.50
2019-03-09T13:52:11.979Z,28.40
2019-03-09T13:54:40.507Z,28.80
2019-03-09T13:57:08.953Z,28.20
2019-03-09T13:59:37.390Z,28.20
2019-03-09T14:02:05.872Z,28.40
2019-03-09T14:04:34.383Z,28.40
2019-03-09T14:07:02.762Z,28.50
2019-03-09T14:09:31.252Z,28.30
2019-03-09T14:11:59.679Z,27.70
2019-03-09T14:14:28.246Z,27.20
2019-03-09T14:16:56.646Z,27.40
2019-03-09T14:19:25.079Z,27.80
2019-03-09T14:21:53.449Z,27.90
2019-03-09T14:24:21.929Z,28.00
2019-03-09T14:26:50.343Z,28.00
2019-03-09T14:29:18.875Z,28.20
2019-03-09T14:31:47.368Z,29.00
2019-03-09T14:34:15.865Z,30.20
2019-03-09T14:36:44.244Z,30.80
2019-03-09T14:39:12.762Z,31.20
2019-03-09T14:42:00.748Z,31.50
2019-03-09T14:44:29.303Z,32.30
2019-03-09T14:46:57.713Z,33.60
2019-03-09T14:49:26.039Z,32.70
2019-03-09T14:52:00.351Z,31.60
2019-03-09T14:54:28.975Z,31.60
2019-03-09T14:56:57.317Z,32.00
2019-03-09T14:59:25.759Z,33.40
2019-03-09T15:01:54.295Z,32.70
2019-03-09T15:04:22.672Z,31.90
2019-03-09T15:06:51.056Z,31.00
2019-03-09T15:09:19.496Z,30.80
2019-03-09T15:11:47.993Z,30.60
2019-03-09T15:14:16.487Z,30.70
2019-03-09T15:16:44.940Z,31.10
2019-03-09T15:19:13.336Z,31.20
2019-03-09T15:22:01.196Z,31.50
2019-03-09T15:24:29.746Z,32.00
2019-03-09T15:26:58.105Z,32.30
2019-03-09T15:29:26.468Z,32.60
2019-03-09T15:31:55.019Z,32.90
2019-03-09T15:34:23.468Z,33.10
2019-03-09T15:36:51.959Z,33.10
2019-03-09T15:39:20.387Z,33.00
2019-03-09T15:41:48.756Z,33.30
2019-03-09T15:44:17.196Z,33.50
2019-03-09T15:46:45.607Z,33.70
2019-03-09T15:49:14.009Z,33.60
2019-03-09T15:51:42.542Z,34.10
2019-03-09T15:54:10.906Z,35.10
2019-03-09T15:56:39.332Z,35.60
2019-03-09T15:59:07.880Z,35.40
2019-03-09T16:01:36.344Z,35.60
2019-03-09T16:04:04.688Z,35.60
2019-03-09T16:06:33.114Z,35.20
2019-03-09T16:09:01.559Z,34.80
2019-03-09T16:11:29.917Z,35.00
2019-03-09T16:13:58.390Z,35.50
2019-03-09T16:16:26.784Z,35.30
2019-03-09T16:18:55.188Z,35.20
2019-03-09T16:21:23.798Z,34.90
2019-03-09T16:23:58.095Z,34.70
2019-03-09T16:26:26.481Z,35.00
2019-03-09T16:28:55.110Z,35.00
2019-03-09T16:31:23.518Z,35.70
2019-03-09T16:33:51.946Z,36.30
2019-03-09T16:36:20.564Z,36.30
2019-03-09T16:38:48.989Z,36.50
2019-03-09T16:41:17.420Z,37.10
2019-03-09T16:43:45.814Z,37.50
2019-03-09T16:46:14.282Z,37.50
2019-03-09T16:48:42.884Z,37.60
2019-03-09T16:51:11.360Z,37.90
2019-03-09T16:53:39.809Z,38.40
2019-03-09T16:56:08.288Z,38.90
2019-03-09T16:58:36.762Z,39.40
2019-03-09T17:01:05.285Z,40.00
2019-03-09T17:03:33.754Z,40.40
2019-03-09T17:06:02.122Z,40.80
2019-03-09T17:08:30.699Z,41.30
2019-03-09T17:10:59.320Z,41.70
2019-03-09T17:13:27.699Z,42.00
2019-03-09T17:15:56.073Z,42.40
2019-03-09T17:18:24.597Z,42.80
2019-03-09T17:20:52.993Z,43.00
2019-03-09T17:23:21.453Z,43.40
2019-03-09T17:25:49.903Z,43.70
2019-03-09T17:28:18.294Z,44.00
2019-03-09T17:30:46.744Z,44.10
2019-03-09T17:33:15.177Z,44.30
2019-03-09T17:35:43.618Z,45.10
2019-03-09T17:38:13.327Z,44.80
2019-03-09T17:40:43.582Z,45.10
2019-03-09T17:43:11.897Z,45.00
2019-03-09T17:45:40.286Z,44.80
2019-03-09T17:48:08.806Z,44.50
2019-03-09T17:50:37.438Z,44.50
2019-03-09T17:53:05.861Z,44.50
2019-03-09T17:55:34.236Z,44.50
2019-03-09T17:58:02.782Z,44.40
2019-03-09T18:00:42.069Z,44.40
2019-03-09T18:03:02.989Z,44.20
2019-03-09T18:05:31.407Z,44.00
2019-03-09T18:07:59.879Z,43.90
2019-03-09T18:10:31.832Z,43.80
2019-03-09T18:13:00.362Z,43.80
2019-03-09T18:15:28.848Z,44.00
2019-03-09T18:17:57.305Z,44.30
2019-03-09T18:20:25.788Z,44.90
2019-03-09T18:22:54.236Z,45.00
2019-03-09T18:25:22.711Z,45.40
2019-03-09T18:27:51.185Z,45.50
2019-03-09T18:30:19.573Z,45.60
2019-03-09T18:32:47.937Z,45.70
2019-03-09T18:35:16.449Z,45.90
2019-03-09T18:37:44.863Z,46.00
2019-03-09T18:40:17.097Z,46.10
2019-03-09T18:42:45.695Z,46.10
2019-03-09T18:45:24.153Z,46.30
2019-03-09T18:47:52.671Z,46.30
2019-03-09T18:50:21.129Z,46.40
2019-03-09T18:52:49.499Z,46.60
2019-03-09T18:55:18.001Z,46.60
2019-03-09T18:57:46.335Z,46.60
2019-03-09T19:00:19.650Z,46.60
2019-03-09T19:02:48.054Z,46.50
2019-03-09T19:05:16.465Z,46.60
2019-03-09T19:07:44.968Z,46.60
2019-03-09T19:10:18.381Z,46.90
2019-03-09T19:12:46.742Z,46.70
2019-03-09T19:15:16.617Z,46.80
2019-03-09T19:17:45.167Z,47.00
2019-03-09T19:20:17.719Z,47.10
2019-03-09T19:22:46.315Z,47.20
2019-03-09T19:25:15.513Z,47.20
2019-03-09T19:27:43.997Z,47.40
2019-03-09T19:30:20.563Z,47.60
2019-03-09T19:32:48.305Z,47.80
2019-03-09T19:35:16.720Z,48.10
2019-03-09T19:37:45.512Z,48.70
2019-03-09T19:40:22.076Z,48.80
2019-03-09T19:42:50.164Z,49.20
2019-03-09T19:45:22.984Z,49.00
2019-03-09T19:47:53.650Z,49.30
2019-03-09T19:50:28.477Z,49.30
2019-03-09T19:52:58.938Z,49.40
2019-03-09T19:55:27.356Z,49.40
2019-03-09T19:57:56.255Z,49.50
2019-03-09T20:00:25.519Z,49.50
2019-03-09T20:02:55.857Z,49.60
2019-03-09T20:05:24.994Z,50.10
2019-03-09T20:07:53.924Z,49.70
2019-03-09T20:10:23.553Z,49.80
2019-03-09T20:12:52.439Z,49.80
2019-03-09T20:15:21.436Z,49.70
2019-03-09T20:17:50.424Z,49.50
2019-03-09T20:20:21.442Z,49.40
2019-03-09T20:22:51.412Z,49.40
2019-03-09T20:25:20.629Z,49.40
2019-03-09T20:27:49.635Z,49.40
2019-03-09T20:30:20.586Z,49.70
2019-03-09T20:32:49.224Z,49.70
2019-03-09T20:35:18.103Z,49.70
2019-03-09T20:37:46.997Z,49.70
2019-03-09T20:40:16.695Z,49.50
2019-03-09T20:42:46.141Z,49.40
2019-03-09T20:45:18.809Z,49.30
2019-03-09T20:47:47.895Z,49.20
2019-03-09T20:50:18.712Z,49.70
2019-03-09T20:52:47.255Z,49.50
2019-03-09T20:55:16.776Z,49.70
2019-03-09T20:57:45.829Z,49.80
2019-03-09T21:00:18.958Z,49.90
2019-03-09T21:02:48.284Z,50.00
2019-03-09T21:05:17.139Z,50.10
2019-03-09T21:07:46.443Z,50.10
2019-03-09T21:10:17.458Z,50.20
2019-03-09T21:13:05.499Z,50.20
2019-03-09T21:15:34.786Z,50.20
2019-03-09T21:18:04.172Z,50.10
2019-03-09T21:20:33.500Z,50.10
2019-03-09T21:23:02.909Z,50.10
2019-03-09T21:25:52.766Z,50.00
2019-03-09T21:28:21.402Z,49.80
2019-03-09T21:30:50.450Z,49.70
2019-03-09T21:33:19.655Z,49.50
2019-03-09T21:35:48.675Z,49.70
2019-03-09T21:41:06.357Z,49.90
2019-03-09T21:43:34.756Z,49.90
2019-03-09T21:46:03.284Z,49.80
2019-03-09T21:48:33.751Z,49.90
2019-03-09T21:51:02.092Z,49.90
2019-03-09T21:53:30.588Z,50.00
2019-03-09T21:55:59.021Z,50.20
2019-03-09T21:58:27.425Z,50.20
2019-03-09T22:00:55.714Z,50.20
2019-03-09T22:03:24.187Z,50.40
2019-03-09T22:05:52.655Z,50.50
2019-03-09T22:08:21.074Z,50.60
2019-03-09T22:10:49.429Z,50.70
2019-03-09T22:13:18.662Z,50.90
2019-03-09T22:15:47.210Z,51.10
2019-03-09T22:18:15.674Z,51.30
2019-03-09T22:20:46.196Z,51.40
2019-03-09T22:23:14.698Z,51.70
2019-03-09T22:25:43.181Z,51.90
2019-03-09T22:28:11.560Z,52.00
2019-03-09T22:30:40.009Z,52.20
2019-03-09T22:33:08.302Z,52.60
2019-03-09T22:35:36.665Z,53.10
2019-03-09T22:38:05.118Z,53.40
2019-03-09T22:40:33.594Z,53.80
2019-03-09T22:43:02.078Z,54.00
2019-03-09T22:45:30.616Z,54.30
2019-03-09T22:47:59.012Z,55.00
2019-03-09T22:50:27.560Z,55.50
2019-03-09T22:52:56.069Z,56.40
2019-03-09T22:55:24.483Z,56.40
2019-03-09T22:57:52.861Z,56.80
2019-03-09T23:00:27.614Z,57.30
2019-03-09T23:02:55.936Z,57.80
2019-03-09T23:05:24.372Z,58.00
2019-03-09T23:07:52.899Z,58.00
2019-03-09T23:10:23.757Z,57.90
2019-03-09T23:12:52.301Z,58.10
2019-03-09T23:15:20.753Z,58.10
2019-03-09T23:17:49.474Z,58.10
2019-03-09T23:20:17.894Z,58.10
2019-03-09T23:22:46.366Z,57.90
2019-03-09T23:25:15.193Z,57.90
2019-03-09T23:27:43.601Z,58.00
2019-03-09T23:30:21.786Z,58.20
2019-03-09T23:32:50.292Z,58.70
2019-03-09T23:35:18.712Z,58.70
2019-03-09T23:37:50.189Z,58.80
2019-03-09T23:40:24.862Z,58.70
2019-03-09T23:42:53.263Z,58.80
2019-03-09T23:45:24.221Z,59.00
2019-03-09T23:47:52.793Z,59.10
2019-03-09T23:50:21.403Z,59.10
2019-03-09T23:52:49.984Z,59.70
2019-03-09T23:55:22.626Z,59.00
2019-03-09T23:57:48.584Z,59.00
